Time;durP1;ratioP1;P1;durP2;ratioP2;P2;SDS_P1;SDS_P2;PMS_P1;PMS_P2;Temp;Humidity;BMP_temperature;BMP_pressure;BME280_temperature;BME280_humidity;BME280_pressure;Samples;Min_cycle;Max_cycle;Signal;HPM_P1;HPM_P2
2022/12/23 00:01:51;;;;;;;3.67;1.20;;;13.40;64.90;;;;;;5061267;28;20055;-49
2022/12/23 00:04:19;;;;;;;5.68;1.63;;;13.40;64.90;;;;;;5058763;28;20060;-49
2022/12/23 00:06:46;;;;;;;5.53;1.75;;;13.40;64.90;;;;;;5060609;28;20056;-47
2022/12/23 00:09:14;;;;;;;4.88;1.40;;;13.40;64.90;;;;;;5060111;28;20052;-48
2022/12/23 00:15:04;;;;;;;5.00;1.60;;;13.40;64.90;;;;;;5057568;28;20052;-49
2022/12/23 00:17:13;;;;;;;4.93;1.55;;;13.50;65.00;;;;;;5066819;28;20064;-50
2022/12/23 00:19:41;;;;;;;5.78;1.13;;;13.40;64.90;;;;;;5061350;28;20385;-48
2022/12/23 00:22:08;;;;;;;3.47;1.17;;;13.40;65.00;;;;;;5058525;28;20056;-51
2022/12/23 00:24:36;;;;;;;3.83;0.90;;;13.50;65.10;;;;;;5059451;28;20052;-49
2022/12/23 00:27:03;;;;;;;6.45;1.30;;;13.40;65.00;;;;;;5058536;28;20484;-49
2022/12/23 00:29:30;;;;;;;4.03;0.95;;;13.40;65.10;;;;;;5060750;28;20048;-49
2022/12/23 00:31:57;;;;;;;3.70;1.02;;;13.40;65.00;;;;;;5060567;28;20049;-50
2022/12/23 00:34:25;;;;;;;5.43;1.45;;;13.50;65.10;;;;;;5059466;28;20396;-47
2022/12/23 00:36:53;;;;;;;2.53;1.00;;;13.50;65.10;;;;;;5060784;28;20075;-46
2022/12/23 00:44:46;;;;;;;2.47;1.00;;;13.40;65.00;;;;;;5006673;28;20052;-46
2022/12/23 00:49:40;;;;;;;2.25;0.90;;;13.40;65.00;;;;;;5060857;28;20044;-47
2022/12/23 00:50:01;;;;;;;4.70;0.85;;;13.40;65.00;;;;;;5059242;28;20059;-50
2022/12/23 00:52:29;;;;;;;1.40;0.75;;;13.50;65.00;;;;;;5057617;28;20044;-46
2022/12/23 00:54:56;;;;;;;4.18;1.17;;;13.40;64.90;;;;;;5059148;28;20468;-47
2022/12/23 00:57:23;;;;;;;4.15;0.75;;;13.40;64.90;;;;;;5058109;28;20378;-50
2022/12/23 00:59:51;;;;;;;2.83;0.55;;;13.40;65.00;;;;;;5060281;28;20053;-50
2022/12/23 01:08:17;;;;;;;2.70;0.70;;;13.40;64.90;;;;;;4979249;28;20658;-46
2022/12/23 01:10:44;;;;;;;2.65;0.75;;;13.40;64.80;;;;;;4975502;28;20047;-50
2022/12/23 01:13:11;;;;;;;1.38;0.65;;;13.40;64.80;;;;;;4975032;28;20055;-46
2022/12/23 01:15:39;;;;;;;2.00;0.70;;;13.40;64.90;;;;;;4974857;28;20057;-50
2022/12/23 01:18:06;;;;;;;2.40;0.57;;;13.40;64.90;;;;;;4976494;28;21085;-49
2022/12/23 01:20:33;;;;;;;1.63;0.60;;;13.50;65.00;;;;;;4976437;28;20050;-47
2022/12/23 01:23:01;;;;;;;1.65;0.60;;;13.40;64.90;;;;;;4974716;28;20061;-48
2022/12/23 01:25:30;;;;;;;3.55;1.23;;;13.40;64.90;;;;;;4974637;28;20062;-49
2022/12/23 01:27:57;;;;;;;2.53;0.73;;;13.40;64.90;;;;;;4975995;28;20487;-47
2022/12/23 01:30:24;;;;;;;1.00;0.52;;;13.40;64.90;;;;;;4976581;28;20410;-48
2022/12/23 01:32:52;;;;;;;1.95;0.35;;;13.40;64.90;;;;;;4975892;28;20050;-46
2022/12/23 01:35:19;;;;;;;1.85;0.60;;;13.40;64.90;;;;;;4976462;28;20121;-49
2022/12/23 01:37:46;;;;;;;2.30;0.80;;;13.40;64.90;;;;;;4975108;28;20517;-47
2022/12/23 01:40:13;;;;;;;2.35;0.63;;;13.40;64.90;;;;;;4973526;28;20058;-46
2022/12/23 01:42:44;;;;;;;2.08;0.65;;;13.40;64.90;;;;;;4973964;28;20054;-47
2022/12/23 01:45:18;;;;;;;1.05;0.43;;;13.40;64.70;;;;;;4976929;28;20058;-49
2022/12/23 01:47:50;;;;;;;1.02;0.55;;;13.50;64.70;;;;;;4977193;28;20054;-47
2022/12/23 01:50:23;;;;;;;1.40;0.32;;;13.40;64.70;;;;;;4975966;28;20058;-46
2022/12/23 01:52:55;;;;;;;1.80;0.40;;;13.40;64.50;;;;;;4975617;28;20053;-48
2022/12/23 01:55:27;;;;;;;1.13;0.30;;;13.40;64.50;;;;;;4973464;28;20494;-45
2022/12/23 01:58:01;;;;;;;0.90;0.50;;;13.40;64.60;;;;;;4974159;28;20062;-50
2022/12/23 02:09:15;;;;;;;;;;;13.40;64.20;;;;;;4977637;28;20505;-49
2022/12/23 02:11:41;;;;;;;1.55;0.45;;;13.40;64.00;;;;;;4980320;28;20394;-46
2022/12/23 02:17:14;;;;;;;0.45;0.20;;;13.30;64.00;;;;;;4981005;28;20059;-47
2022/12/23 02:20:09;;;;;;;1.48;0.50;;;13.30;64.20;;;;;;4959740;28;20065;-49
2022/12/23 02:22:48;;;;;;;;;;;13.30;64.20;;;;;;4961688;28;20066;-46
2022/12/23 02:25:38;;;;;;;1.25;0.38;;;13.40;64.20;;;;;;4957880;28;19937;-46
2022/12/23 02:28:32;;;;;;;2.72;0.38;;;13.30;63.80;;;;;;4960099;28;20059;-50
2022/12/23 02:31:09;;;;;;;0.83;0.50;;;13.30;64.20;;;;;;4959203;28;20059;-48
2022/12/23 02:33:47;;;;;;;1.75;0.20;;;13.30;64.50;;;;;;4959937;28;20059;-46
2022/12/23 02:36:26;;;;;;;1.02;0.25;;;13.30;64.60;;;;;;4959316;28;20487;-46
2022/12/23 02:39:01;;;;;;;1.65;0.20;;;13.30;64.80;;;;;;4953400;28;20517;-46
2022/12/23 02:41:34;;;;;;;1.05;0.30;;;13.30;64.80;;;;;;4961134;28;20050;-47
2022/12/23 02:44:09;;;;;;;1.45;0.22;;;13.40;64.90;;;;;;4959622;28;20043;-50
2022/12/23 02:46:44;;;;;;;2.83;0.25;;;13.40;65.00;;;;;;4960166;28;20058;-46
2022/12/23 02:49:15;;;;;;;0.15;0.10;;;13.40;65.10;;;;;;4959212;28;20069;-50
2022/12/23 02:51:47;;;;;;;1.02;0.30;;;13.40;65.10;;;;;;4960356;28;20054;-50
2022/12/23 02:54:22;;;;;;;0.50;0.30;;;13.40;65.10;;;;;;4958838;28;20055;-50
2022/12/23 02:56:52;;;;;;;1.48;0.30;;;13.40;65.00;;;;;;4960556;28;20053;-49
2022/12/23 02:59:22;;;;;;;1.65;0.38;;;13.40;64.90;;;;;;4957764;28;20061;-45
2022/12/23 03:01:52;;;;;;;0.88;0.35;;;13.40;64.70;;;;;;4959774;28;20414;-49
2022/12/23 03:04:20;;;;;;;0.98;0.32;;;13.40;64.70;;;;;;4961307;28;20058;-48
2022/12/23 03:06:51;;;;;;;1.35;0.55;;;13.50;64.80;;;;;;4959947;28;20059;-46
2022/12/23 03:09:29;;;;;;;1.02;0.50;;;13.50;64.90;;;;;;4956364;28;20055;-48
2022/12/23 03:12:04;;;;;;;1.85;1.05;;;13.50;64.80;;;;;;4959608;28;20059;-46
2022/12/23 03:14:48;;;;;;;0.77;0.28;;;13.50;64.90;;;;;;4959059;28;20524;-47
2022/12/23 03:17:34;;;;;;;1.17;0.20;;;13.50;64.90;;;;;;4961308;28;20051;-45
2022/12/23 03:20:09;;;;;;;1.95;0.35;;;13.50;64.80;;;;;;4957683;28;20051;-49
2022/12/23 03:22:39;;;;;;;2.75;0.40;;;13.60;64.80;;;;;;4961099;28;20058;-49
2022/12/23 03:25:12;;;;;;;1.55;0.30;;;13.50;65.40;;;;;;4958868;28;20506;-47
2022/12/23 03:27:42;;;;;;;2.15;0.50;;;13.50;64.70;;;;;;4958560;28;20047;-50
2022/12/23 03:30:13;;;;;;;3.47;0.28;;;13.50;64.70;;;;;;4953401;28;20054;-49
2022/12/23 03:32:46;;;;;;;2.00;0.75;;;13.60;64.70;;;;;;4960767;28;20057;-48
2022/12/23 03:35:16;;;;;;;4.30;0.50;;;13.50;64.50;;;;;;4959774;28;20065;-49
2022/12/23 03:37:47;;;;;;;2.50;0.65;;;13.50;64.40;;;;;;4959314;28;20047;-45
2022/12/23 03:40:19;;;;;;;2.90;0.98;;;13.50;64.40;;;;;;4957590;28;20054;-48
2022/12/23 03:42:50;;;;;;;1.67;0.70;;;13.50;64.30;;;;;;4958198;28;20062;-48
2022/12/23 03:45:23;;;;;;;2.17;0.68;;;13.50;64.30;;;;;;4958626;28;20502;-50
2022/12/23 03:47:55;;;;;;;2.47;0.95;;;13.50;64.30;;;;;;4961668;28;20482;-47
2022/12/23 03:50:24;;;;;;;3.33;0.80;;;13.50;64.40;;;;;;4950604;28;20416;-48
2022/12/23 03:52:57;;;;;;;1.52;0.65;;;13.50;64.40;;;;;;4956615;28;20060;-50
2022/12/23 03:55:27;;;;;;;2.85;0.95;;;13.50;64.50;;;;;;4958239;28;20046;-50
2022/12/23 03:58:03;;;;;;;5.75;1.02;;;13.50;64.30;;;;;;4958887;28;20058;-50
2022/12/23 04:00:35;;;;;;;5.35;1.10;;;13.50;64.30;;;;;;4957864;28;20066;-47
2022/12/23 04:03:12;;;;;;;4.22;1.10;;;13.50;64.40;;;;;;4959150;28;20055;-48
2022/12/23 04:05:45;;;;;;;1.88;1.05;;;13.50;64.30;;;;;;4956048;28;20043;-48
2022/12/23 04:08:16;;;;;;;2.60;1.40;;;13.40;64.20;;;;;;4960466;28;20503;-46
2022/12/23 04:10:44;;;;;;;2.67;1.20;;;13.50;65.00;;;;;;4959400;28;20410;-47
2022/12/23 04:13:11;;;;;;;4.53;1.33;;;13.40;64.20;;;;;;4961626;28;20062;-49
2022/12/23 04:15:40;;;;;;;2.50;0.93;;;13.50;64.40;;;;;;4959128;28;20059;-49
2022/12/23 04:18:10;;;;;;;2.05;0.85;;;13.40;64.30;;;;;;4957808;28;20050;-48
2022/12/23 04:20:37;;;;;;;3.95;0.85;;;13.40;64.30;;;;;;4959924;28;20054;-49
2022/12/23 04:23:05;;;;;;;2.88;0.93;;;13.40;64.30;;;;;;4958489;28;20051;-51
2022/12/23 04:25:32;;;;;;;5.50;0.90;;;13.50;64.40;;;;;;4957858;28;20055;-47
2022/12/23 04:27:59;;;;;;;7.07;1.15;;;13.50;64.50;;;;;;4958802;28;20410;-46
2022/12/23 04:30:26;;;;;;;3.58;1.23;;;13.50;64.40;;;;;;4958608;28;20054;-48
2022/12/23 04:32:54;;;;;;;2.67;1.27;;;13.50;64.40;;;;;;4957945;28;20062;-50
2022/12/23 04:35:22;;;;;;;2.45;1.10;;;13.50;64.30;;;;;;4957620;28;20062;-48
2022/12/23 04:37:50;;;;;;;5.70;1.48;;;13.50;64.00;;;;;;4958586;28;20055;-52
2022/12/23 04:40:17;;;;;;;9.20;1.05;;;13.50;64.00;;;;;;4957171;28;20051;-49
2022/12/23 04:42:44;;;;;;;3.10;1.13;;;13.50;64.10;;;;;;4959649;28;20073;-46
2022/12/23 04:45:12;;;;;;;7.22;1.75;;;13.50;64.00;;;;;;4957388;28;20062;-46
2022/12/23 04:47:39;;;;;;;4.05;1.30;;;13.50;64.00;;;;;;4958706;28;20427;-47
2022/12/23 04:50:08;;;;;;;3.85;1.20;;;13.50;63.90;;;;;;4957322;28;20407;-48
2022/12/23 04:52:36;;;;;;;3.78;1.00;;;13.50;63.90;;;;;;4958274;28;20418;-52
2022/12/23 04:55:04;;;;;;;7.90;1.23;;;13.50;63.70;;;;;;4956159;28;20058;-49
2022/12/23 04:57:31;;;;;;;2.78;1.17;;;13.50;63.60;;;;;;4928924;28;20052;-49
2022/12/23 04:59:59;;;;;;;4.63;1.10;;;13.50;63.60;;;;;;4922712;28;20066;-48
2022/12/23 05:02:26;;;;;;;6.68;1.77;;;13.50;63.80;;;;;;4920476;28;20055;-50
2022/12/23 05:04:53;;;;;;;4.57;1.20;;;13.50;63.80;;;;;;4921505;28;20059;-49
2022/12/23 05:07:20;;;;;;;2.30;1.23;;;13.50;63.70;;;;;;4922813;28;20059;-49
2022/12/23 05:09:49;;;;;;;6.25;1.35;;;13.50;63.70;;;;;;4921943;28;20047;-46
2022/12/23 05:12:16;;;;;;;3.45;1.17;;;13.50;63.60;;;;;;4921461;28;20503;-51
2022/12/23 05:14:43;;;;;;;5.65;1.23;;;13.50;63.60;;;;;;4923487;28;20062;-47
2022/12/23 05:17:11;;;;;;;4.22;1.35;;;13.50;63.50;;;;;;4920334;28;20395;-49
2022/12/23 05:19:38;;;;;;;2.88;1.10;;;13.50;63.50;;;;;;4920129;28;20047;-48
2022/12/23 05:22:05;;;;;;;3.88;1.20;;;13.50;63.50;;;;;;4920748;28;20102;-50
2022/12/23 05:24:32;;;;;;;2.97;1.25;;;13.50;63.40;;;;;;4918829;28;20054;-47
2022/12/23 05:27:01;;;;;;;4.18;1.00;;;13.50;63.50;;;;;;4916888;28;20056;-48
2022/12/23 05:29:28;;;;;;;5.85;1.60;;;13.50;63.50;;;;;;4922402;28;20484;-49
2022/12/23 05:31:55;;;;;;;5.65;1.00;;;13.50;64.00;;;;;;4916848;28;20106;-49
2022/12/23 05:34:23;;;;;;;5.40;1.08;;;13.50;63.20;;;;;;4920497;28;20060;-45
2022/12/23 05:36:50;;;;;;;5.32;1.02;;;13.50;63.30;;;;;;4919862;28;20052;-46
2022/12/23 05:39:17;;;;;;;5.35;1.30;;;13.50;63.30;;;;;;4921561;28;20058;-47
2022/12/23 05:41:44;;;;;;;4.05;1.00;;;13.50;63.20;;;;;;4924285;28;20074;-46
2022/12/23 05:44:13;;;;;;;2.60;0.93;;;13.50;63.10;;;;;;4920853;28;20051;-52
2022/12/23 05:46:40;;;;;;;2.88;0.90;;;13.50;63.10;;;;;;4920714;28;20059;-49
2022/12/23 05:49:07;;;;;;;5.03;1.50;;;13.50;63.10;;;;;;4920294;28;20508;-50
2022/12/23 05:51:35;;;;;;;3.00;0.90;;;13.50;63.00;;;;;;4919421;28;20488;-47
2022/12/23 05:54:02;;;;;;;3.13;0.88;;;13.50;63.10;;;;;;4923033;28;20058;-46
2022/12/23 05:56:29;;;;;;;6.05;1.10;;;13.50;63.10;;;;;;4923228;28;20059;-46
2022/12/23 05:58:56;;;;;;;4.32;1.45;;;13.50;62.70;;;;;;4920986;28;21328;-49
2022/12/23 06:01:25;;;;;;;5.90;1.30;;;13.50;62.30;;;;;;4921813;28;20051;-49
2022/12/23 06:03:52;;;;;;;4.80;1.00;;;13.50;62.10;;;;;;4924109;28;20056;-48
2022/12/23 06:06:19;;;;;;;2.20;0.90;;;13.50;62.20;;;;;;4924310;28;20503;-47
2022/12/23 06:08:46;;;;;;;2.50;0.80;;;13.50;62.00;;;;;;4922312;28;20063;-45
2022/12/23 06:11:14;;;;;;;4.65;1.75;;;13.40;61.70;;;;;;4923970;28;20067;-46
2022/12/23 06:13:41;;;;;;;9.48;4.05;;;13.40;61.60;;;;;;4923936;28;20052;-48
2022/12/23 06:16:08;;;;;;;4.93;1.55;;;13.40;61.60;;;;;;4925298;28;20063;-47
2022/12/23 06:18:37;;;;;;;4.30;1.17;;;13.40;61.60;;;;;;4922591;29;20067;-47
2022/12/23 06:21:04;;;;;;;2.78;1.05;;;13.40;61.60;;;;;;4922078;28;20066;-46
2022/12/23 06:23:32;;;;;;;4.32;0.90;;;13.40;61.40;;;;;;4922600;28;20065;-50
2022/12/23 06:25:59;;;;;;;2.67;0.80;;;13.40;61.20;;;;;;4924890;28;20055;-48
2022/12/23 06:28:28;;;;;;;5.85;0.73;;;13.30;61.20;;;;;;4923625;28;20063;-50
2022/12/23 06:30:55;;;;;;;4.72;0.85;;;13.30;61.20;;;;;;4919252;29;20060;-51
2022/12/23 06:33:23;;;;;;;5.72;0.85;;;13.30;61.30;;;;;;4922581;28;20059;-45
2022/12/23 06:35:52;;;;;;;2.80;1.27;;;13.30;61.20;;;;;;4921351;28;20052;-46
2022/12/23 06:38:19;;;;;;;5.53;1.10;;;13.30;61.20;;;;;;4922442;28;20059;-50
2022/12/23 06:40:46;;;;;;;3.20;0.75;;;13.30;61.30;;;;;;4925977;28;20403;-50
2022/12/23 06:43:14;;;;;;;3.65;0.77;;;13.30;61.10;;;;;;4921881;28;20060;-48
2022/12/23 06:45:46;;;;;;;1.48;0.70;;;13.30;61.10;;;;;;4923303;28;20055;-47
2022/12/23 06:48:13;;;;;;;4.10;0.80;;;13.30;61.10;;;;;;4923306;28;20056;-48
2022/12/23 06:50:40;;;;;;;6.65;1.10;;;13.30;61.10;;;;;;4925052;28;20062;-47
2022/12/23 06:53:09;;;;;;;2.90;0.60;;;13.20;60.90;;;;;;4921603;28;20064;-46
2022/12/23 06:55:36;;;;;;;3.03;0.73;;;13.30;60.90;;;;;;4921325;28;20420;-46
2022/12/23 06:58:04;;;;;;;3.03;0.50;;;13.20;60.90;;;;;;4924783;28;20063;-46
2022/12/23 07:00:31;;;;;;;3.45;1.13;;;13.20;61.00;;;;;;4924565;28;20055;-44
2022/12/23 07:02:58;;;;;;;1.85;0.55;;;13.20;61.30;;;;;;4919540;28;20059;-49
2022/12/23 07:05:25;;;;;;;6.00;0.90;;;13.20;61.60;;;;;;4923436;28;20047;-45
2022/12/23 07:07:53;;;;;;;4.78;0.65;;;13.30;61.80;;;;;;4926615;28;20048;-49
2022/12/23 07:10:21;;;;;;;3.47;0.57;;;13.30;61.90;;;;;;4915130;28;20403;-47
2022/12/23 07:12:49;;;;;;;6.18;0.80;;;13.30;62.10;;;;;;4915740;28;20056;-50
2022/12/23 07:15:16;;;;;;;0.75;0.40;;;13.30;62.20;;;;;;4922430;28;20071;-50
2022/12/23 07:17:44;;;;;;;2.17;0.77;;;13.30;62.30;;;;;;4923769;28;20055;-50
2022/12/23 07:20:13;;;;;;;2.70;1.05;;;13.30;62.40;;;;;;4922741;28;20435;-47
2022/12/23 07:22:42;;;;;;;1.17;0.80;;;13.30;62.40;;;;;;4922081;28;20056;-46
2022/12/23 07:25:10;;;;;;;4.75;0.70;;;13.30;62.40;;;;;;4922865;28;20047;-48
2022/12/23 07:27:39;;;;;;;3.25;1.40;;;13.30;62.40;;;;;;4924487;28;20062;-47
2022/12/23 07:30:08;;;;;;;4.32;1.30;;;13.40;62.50;;;;;;4921184;28;20057;-50
2022/12/23 07:32:37;;;;;;;4.50;1.67;;;13.40;62.50;;;;;;4920565;28;20051;-51
2022/12/23 07:35:06;;;;;;;4.30;1.90;;;13.40;62.50;;;;;;4921755;28;20063;-51
2022/12/23 07:37:33;;;;;;;7.38;2.03;;;13.40;62.50;;;;;;4921877;28;20066;-45
2022/12/23 07:40:01;;;;;;;4.50;1.15;;;13.40;62.60;;;;;;4918342;28;20048;-48
2022/12/23 07:42:29;;;;;;;4.72;1.15;;;13.40;62.60;;;;;;4921599;28;20059;-47
2022/12/23 07:44:58;;;;;;;3.28;0.82;;;13.40;62.60;;;;;;4920797;28;20051;-50
2022/12/23 07:47:26;;;;;;;3.55;0.80;;;13.40;62.60;;;;;;4921742;28;20061;-48
2022/12/23 07:49:54;;;;;;;2.05;0.80;;;13.40;62.70;;;;;;4921862;28;20047;-45
2022/12/23 07:52:22;;;;;;;5.38;0.75;;;13.40;62.70;;;;;;4921431;28;20052;-50
2022/12/23 07:54:50;;;;;;;1.95;0.70;;;13.40;62.70;;;;;;4922377;28;20067;-48
2022/12/23 07:57:18;;;;;;;2.03;0.70;;;13.40;62.70;;;;;;4923319;28;20056;-50
2022/12/23 07:59:45;;;;;;;2.00;0.82;;;13.40;62.70;;;;;;4919988;28;20067;-47
2022/12/23 08:02:14;;;;;;;1.73;0.80;;;13.40;62.60;;;;;;4922867;28;20601;-50
2022/12/23 08:04:41;;;;;;;4.90;2.60;;;13.40;62.70;;;;;;4915164;28;20055;-48
2022/12/23 08:07:08;;;;;;;18.95;13.15;;;13.50;62.70;;;;;;4920695;28;20519;-47
2022/12/23 08:09:35;;;;;;;21.63;11.13;;;13.40;62.70;;;;;;4919271;28;20054;-50
2022/12/23 08:12:03;;;;;;;17.45;12.15;;;13.50;62.50;;;;;;4918549;28;20070;-49
2022/12/23 08:14:30;;;;;;;16.85;11.30;;;13.40;62.40;;;;;;4917307;28;20570;-50
2022/12/23 08:16:57;;;;;;;20.23;13.25;;;13.40;62.30;;;;;;4918772;28;20059;-48
2022/12/23 08:19:26;;;;;;;15.23;11.18;;;13.50;62.30;;;;;;4916973;28;20527;-48
2022/12/23 08:21:53;;;;;;;8.07;5.43;;;13.50;62.40;;;;;;4918403;28;20059;-49
2022/12/23 08:24:20;;;;;;;6.53;4.50;;;13.50;62.50;;;;;;4920351;28;20051;-50
2022/12/23 08:26:47;;;;;;;6.03;3.33;;;13.50;62.50;;;;;;4924058;28;20052;-48
2022/12/23 08:29:15;;;;;;;4.25;2.90;;;13.50;62.60;;;;;;4920514;28;20059;-48
2022/12/23 08:31:42;;;;;;;4.43;1.90;;;13.50;62.60;;;;;;4920553;28;20408;-46
2022/12/23 08:34:10;;;;;;;6.93;4.03;;;13.50;62.60;;;;;;4921437;28;20056;-48
2022/12/23 08:36:39;;;;;;;4.45;2.92;;;13.50;62.60;;;;;;4920005;28;20056;-51
2022/12/23 08:39:09;;;;;;;2.78;1.85;;;13.50;62.50;;;;;;4920100;28;20060;-49
2022/12/23 08:41:38;;;;;;;2.70;1.52;;;13.50;62.50;;;;;;4920849;28;20495;-46
2022/12/23 08:44:06;;;;;;;5.25;3.38;;;13.50;62.50;;;;;;4915407;28;20398;-47
2022/12/23 08:46:34;;;;;;;9.10;4.00;;;13.50;62.50;;;;;;4917489;28;20597;-49
2022/12/23 08:49:01;;;;;;;4.63;3.08;;;13.50;62.40;;;;;;4921160;28;20091;-50
2022/12/23 08:51:29;;;;;;;6.82;5.20;;;13.50;62.40;;;;;;4921260;28;20063;-48
2022/12/23 08:53:59;;;;;;;6.55;4.18;;;13.60;62.50;;;;;;4917525;28;20056;-49
2022/12/23 08:56:29;;;;;;;5.25;3.20;;;13.60;62.30;;;;;;4918807;28;20491;-47
2022/12/23 08:58:57;;;;;;;3.35;2.50;;;13.60;62.30;;;;;;4916468;28;20048;-48
2022/12/23 09:01:26;;;;;;;4.32;2.38;;;13.60;62.20;;;;;;4918657;28;20691;-48
2022/12/23 09:03:53;;;;;;;7.50;3.40;;;13.60;62.20;;;;;;4915911;28;20059;-47
2022/12/23 09:06:23;;;;;;;5.57;4.50;;;13.60;62.10;;;;;;4923190;28;20440;-48
2022/12/23 09:08:51;;;;;;;6.00;4.22;;;13.60;62.00;;;;;;4920701;28;20052;-50
2022/12/23 09:11:22;;;;;;;3.83;2.83;;;13.60;62.00;;;;;;4922087;28;20072;-49
2022/12/23 09:13:49;;;;;;;4.25;2.58;;;13.60;61.90;;;;;;4920756;28;20055;-49
2022/12/23 09:16:17;;;;;;;3.35;1.98;;;13.60;61.90;;;;;;4922596;28;20048;-48
2022/12/23 09:18:44;;;;;;;2.47;2.15;;;13.60;61.90;;;;;;4920097;28;20063;-48
2022/12/23 09:21:15;;;;;;;2.78;2.47;;;13.60;62.70;;;;;;4920258;28;20507;-48
2022/12/23 09:23:42;;;;;;;3.58;3.10;;;13.60;62.00;;;;;;4920302;28;20066;-47
2022/12/23 09:26:10;;;;;;;4.80;3.03;;;13.60;62.10;;;;;;4918702;28;20063;-47
2022/12/23 09:28:39;;;;;;;3.72;2.75;;;13.60;62.20;;;;;;4922939;28;20060;-44
2022/12/23 09:31:07;;;;;;;3.33;2.20;;;13.60;62.20;;;;;;4922002;28;20067;-45
2022/12/23 09:33:35;;;;;;;2.22;1.40;;;13.60;62.20;;;;;;4925132;28;20063;-48
2022/12/23 09:36:02;;;;;;;1.40;1.20;;;13.60;62.20;;;;;;4924078;28;20058;-48
2022/12/23 09:38:30;;;;;;;1.42;1.00;;;13.60;62.20;;;;;;4922847;28;20052;-50
2022/12/23 09:41:03;;;;;;;2.50;1.10;;;13.70;62.30;;;;;;4922127;28;20062;-48
2022/12/23 09:43:43;;;;;;;1.27;0.85;;;13.70;62.30;;;;;;4924476;28;20059;-46
2022/12/23 09:46:17;;;;;;;1.25;0.75;;;13.70;62.40;;;;;;4925440;28;20408;-50
2022/12/23 09:48:52;;;;;;;2.38;0.85;;;13.70;62.30;;;;;;4925778;28;20099;-48
2022/12/23 09:51:22;;;;;;;2.42;0.70;;;13.70;62.20;;;;;;4921046;28;20048;-48
2022/12/23 09:53:58;;;;;;;3.63;1.00;;;13.70;62.20;;;;;;4924323;28;20070;-50
2022/12/23 09:56:34;;;;;;;5.13;0.68;;;13.70;62.10;;;;;;4918419;28;20059;-46
2022/12/23 09:59:14;;;;;;;1.92;1.10;;;13.70;62.10;;;;;;4922914;28;20051;-50
2022/12/23 10:01:52;;;;;;;2.83;0.98;;;13.70;62.00;;;;;;4923861;28;20052;-51
2022/12/23 10:04:33;;;;;;;2.60;0.80;;;13.70;62.00;;;;;;4920519;28;20055;-49
2022/12/23 10:07:16;;;;;;;3.80;0.90;;;13.70;62.00;;;;;;4920353;28;20067;-47
2022/12/23 10:09:48;;;;;;;3.65;0.90;;;13.70;62.00;;;;;;4921678;28;20496;-49
2022/12/23 10:12:26;;;;;;;1.23;0.60;;;13.70;62.00;;;;;;4925317;28;20059;-49
2022/12/23 10:14:57;;;;;;;4.95;0.60;;;13.70;62.60;;;;;;4922754;28;20055;-51
2022/12/23 10:17:28;;;;;;;1.48;0.68;;;13.70;61.90;;;;;;4920746;28;20063;-49
2022/12/23 10:20:00;;;;;;;4.13;1.25;;;13.70;61.80;;;;;;4922420;28;20541;-48
2022/12/23 10:22:34;;;;;;;2.50;1.60;;;13.70;61.60;;;;;;4920600;28;20050;-45
2022/12/23 10:25:03;;;;;;;1.75;0.85;;;13.70;61.60;;;;;;4922260;28;20044;-48
2022/12/23 10:27:34;;;;;;;0.90;0.70;;;13.70;61.60;;;;;;4924883;28;20503;-48
2022/12/23 10:30:11;;;;;;;2.10;0.70;;;13.70;61.40;;;;;;4923542;28;20058;-51
2022/12/23 10:32:52;;;;;;;0.52;0.35;;;13.70;61.40;;;;;;4919449;28;20066;-50
2022/12/23 10:35:32;;;;;;;1.50;0.35;;;13.70;61.30;;;;;;4923367;28;20381;-50
2022/12/23 10:38:04;;;;;;;3.67;1.58;;;13.70;61.30;;;;;;4922269;28;20059;-48
2022/12/23 10:40:44;;;;;;;4.13;0.70;;;13.70;62.10;;;;;;4922192;28;20060;-50
2022/12/23 10:43:20;;;;;;;0.38;0.25;;;13.70;61.40;;;;;;4921066;28;20052;-51
2022/12/23 10:45:56;;;;;;;1.65;0.43;;;13.70;61.40;;;;;;4919824;28;20062;-45
2022/12/23 10:48:38;;;;;;;1.75;0.50;;;13.70;61.40;;;;;;4917212;29;20623;-50
2022/12/23 10:51:12;;;;;;;2.00;0.40;;;13.70;61.30;;;;;;4922571;29;20054;-51
2022/12/23 10:53:46;;;;;;;1.65;0.47;;;13.70;61.20;;;;;;4922085;28;20874;-50
2022/12/23 10:56:14;;;;;;;0.63;0.30;;;13.70;62.00;;;;;;4925959;28;20499;-50
2022/12/23 10:58:44;;;;;;;3.20;0.73;;;13.70;61.30;;;;;;4924090;28;20075;-50
2022/12/23 11:01:16;;;;;;;2.05;0.90;;;13.70;61.30;;;;;;4920602;28;20052;-49
2022/12/23 11:03:49;;;;;;;8.05;1.33;;;13.70;61.40;;;;;;4920851;29;20419;-50
2022/12/23 11:06:16;;;;;;;1.93;0.70;;;13.70;61.40;;;;;;4923461;28;20086;-46
2022/12/23 11:08:44;;;;;;;2.05;0.98;;;13.70;61.50;;;;;;4921574;29;21344;-48
2022/12/23 11:11:11;;;;;;;3.13;0.82;;;13.70;61.50;;;;;;4923795;29;20048;-49
2022/12/23 11:13:40;;;;;;;3.47;1.08;;;13.70;61.50;;;;;;4925198;28;20060;-48
2022/12/23 11:16:24;;;;;;;1.25;0.70;;;13.70;61.50;;;;;;4918246;28;20436;-50
2022/12/23 11:19:00;;;;;;;1.67;0.90;;;13.70;61.50;;;;;;4922494;28;20055;-51
2022/12/23 11:21:28;;;;;;;2.38;0.95;;;13.70;61.50;;;;;;4924433;29;20369;-48
2022/12/23 11:24:14;;;;;;;3.42;0.82;;;13.70;61.50;;;;;;4921961;28;20050;-50
2022/12/23 11:26:42;;;;;;;2.83;0.90;;;13.70;61.40;;;;;;4925026;29;20499;-48
2022/12/23 11:29:15;;;;;;;5.50;1.52;;;13.70;61.50;;;;;;4924290;28;20052;-47
2022/12/23 11:31:44;;;;;;;6.72;1.45;;;13.70;61.50;;;;;;4922414;29;20066;-50
2022/12/23 11:34:17;;;;;;;1.90;0.88;;;13.70;61.50;;;;;;4924235;29;20055;-49
2022/12/23 11:36:51;;;;;;;2.60;1.00;;;13.70;61.50;;;;;;4925025;28;20048;-46
2022/12/23 11:39:24;;;;;;;2.58;0.90;;;13.70;61.50;;;;;;4921428;28;20055;-46
2022/12/23 11:41:54;;;;;;;2.93;1.07;;;13.70;61.50;;;;;;4924022;28;20051;-50
2022/12/23 11:44:26;;;;;;;1.98;0.80;;;13.70;61.50;;;;;;4923727;29;20075;-48
2022/12/23 11:46:55;;;;;;;2.03;0.80;;;13.70;61.50;;;;;;4922740;28;20067;-46
2022/12/23 11:49:24;;;;;;;2.75;0.70;;;13.60;61.40;;;;;;4922647;28;20064;-49
2022/12/23 11:52:01;;;;;;;2.33;1.02;;;13.70;61.50;;;;;;4922761;29;20056;-47
2022/12/23 11:54:31;;;;;;;4.15;0.50;;;13.60;61.50;;;;;;4920526;28;20066;-49
2022/12/23 11:57:00;;;;;;;3.28;0.70;;;13.60;61.50;;;;;;4924105;28;20070;-47
2022/12/23 11:59:34;;;;;;;1.90;0.57;;;13.60;61.60;;;;;;4923542;28;20059;-46
2022/12/23 12:02:05;;;;;;;3.88;0.88;;;13.60;61.70;;;;;;4920872;29;20393;-51
2022/12/23 12:04:35;;;;;;;2.33;0.80;;;13.60;61.70;;;;;;4924246;29;20059;-47
2022/12/23 12:07:04;;;;;;;2.97;1.00;;;13.60;61.80;;;;;;4923952;29;20431;-47
2022/12/23 12:09:33;;;;;;;2.72;0.88;;;13.60;61.80;;;;;;4921110;28;20056;-49
2022/12/23 12:12:05;;;;;;;2.95;0.90;;;13.60;61.80;;;;;;4923327;29;20052;-49
2022/12/23 12:14:42;;;;;;;1.30;0.93;;;13.60;61.90;;;;;;4923200;29;20064;-49
2022/12/23 12:17:18;;;;;;;9.25;1.55;;;13.60;61.90;;;;;;4923306;29;20495;-49
2022/12/23 12:19:56;;;;;;;3.17;1.30;;;13.60;62.00;;;;;;4923143;28;20056;-48
2022/12/23 12:22:32;;;;;;;1.85;0.90;;;13.60;62.00;;;;;;4921158;28;20052;-49
2022/12/23 12:25:06;;;;;;;2.88;1.10;;;13.50;62.00;;;;;;4918830;28;20051;-49
2022/12/23 12:27:38;;;;;;;2.40;1.10;;;13.50;62.00;;;;;;4921787;28;20059;-49
2022/12/23 12:30:11;;;;;;;1.88;0.93;;;13.50;62.10;;;;;;4923072;29;20055;-51
2022/12/23 12:32:48;;;;;;;2.58;1.15;;;13.50;62.20;;;;;;4922705;29;20051;-47
2022/12/23 12:35:22;;;;;;;1.83;1.08;;;13.50;62.20;;;;;;4923383;29;20070;-48
2022/12/23 12:37:55;;;;;;;2.63;1.00;;;13.50;62.30;;;;;;4922225;28;20059;-49
2022/12/23 12:40:30;;;;;;;1.97;1.00;;;13.50;62.40;;;;;;4921585;28;20056;-48
2022/12/23 12:43:03;;;;;;;2.85;0.75;;;13.50;62.50;;;;;;4923280;29;20068;-51
2022/12/23 12:45:37;;;;;;;1.88;0.73;;;13.50;62.50;;;;;;4922064;28;20060;-48
2022/12/23 12:48:23;;;;;;;1.55;0.80;;;13.40;62.60;;;;;;4923013;29;20051;-50
2022/12/23 12:51:02;;;;;;;76.60;29.83;;;13.40;62.70;;;;;;4917586;28;20056;-48
2022/12/23 12:53:32;;;;;;;15.55;7.63;;;13.40;62.80;;;;;;4920269;29;20044;-50
2022/12/23 12:56:07;;;;;;;5.50;2.97;;;13.40;62.80;;;;;;4923177;28;20404;-50
2022/12/23 12:58:35;;;;;;;2.40;1.50;;;13.40;63.00;;;;;;4921325;29;20067;-46
2022/12/23 13:01:18;;;;;;;1.75;0.93;;;13.40;63.10;;;;;;4921480;28;20056;-51
2022/12/23 13:04:11;;;;;;;2.45;0.93;;;13.40;63.20;;;;;;4923106;28;20062;-45
2022/12/23 13:06:46;;;;;;;5.22;0.95;;;13.30;63.30;;;;;;4929292;28;20514;-51
2022/12/23 13:09:25;;;;;;;1.77;1.05;;;13.40;63.40;;;;;;4920882;28;20059;-53
2022/12/23 13:12:05;;;;;;;0.90;0.63;;;13.40;63.40;;;;;;4921850;29;20056;-51
2022/12/23 13:14:47;;;;;;;1.08;0.70;;;13.40;63.50;;;;;;4922003;29;20048;-50
2022/12/23 13:17:19;;;;;;;0.75;0.50;;;13.40;63.60;;;;;;4923588;28;20056;-49
2022/12/23 13:19:55;;;;;;;0.70;0.50;;;13.40;63.60;;;;;;4920044;28;20059;-50
2022/12/23 13:22:27;;;;;;;1.60;0.65;;;13.30;63.70;;;;;;4919678;28;20051;-51
2022/12/23 13:25:00;;;;;;;1.63;0.80;;;13.40;63.80;;;;;;4919607;28;20059;-52
2022/12/23 13:27:32;;;;;;;0.82;0.70;;;13.30;63.80;;;;;;4922516;28;20059;-48
2022/12/23 13:30:10;;;;;;;1.02;0.70;;;13.30;64.00;;;;;;4922355;29;20060;-49
2022/12/23 13:33:06;;;;;;;2.90;0.80;;;13.30;64.10;;;;;;4920036;28;20839;-50